CSAV Rahue — A8MH2 — position and weather

sailwx.info

Track history (hours):
 
Tides and Currents Weather Stations Pressure Air Temp Water Temp Dewpoint Dewpoint Depression Visibility Wind Speed Wind Dir Waves Ship Positions

CSAV Rahue

Last reported at 2018-Jul-15 15:23 UTC. Time now 2018-Jul-18 22:26 UTC.
Position S 33°21' E 017°56'.

Length 231 m; draft 10.4 m.

Type: Ship (hazmat cat B). MMSI: 636091346.

Date/timePositionNaut miles runAvg speedWind from/ knotsBaromVisibWave heightAir tempDewpointWater temp
2018-Jul-15 15:23S 33°21' E 017°56'818.0
2018-Jul-15 14:55S 33°28' E 018°01'917.5
2018-Jul-15 14:22S 33°36' E 018°07'1117.7
2018-Jul-15 13:45S 33°45' E 018°15'517.8
2018-Jul-15 13:30S 33°49' E 018°18'714.2
2018-Jul-15 13:01S 33°52' E 018°26'3 5.7
2018-Jul-15 12:31S 33°55' E 018°26'0 0.1
2018-Jul-15 12:00S 33°55' E 018°26'0 0.0
2018-Jul-15 11:30S 33°55' E 018°26'0 0.0
2018-Jul-15 11:00S 33°55' E 018°26'0 0.0
2018-Jul-15 10:30S 33°55' E 018°26'0 0.0
2018-Jul-15 10:00S 33°55' E 018°26'0 0.0
2018-Jul-15 09:30S 33°55' E 018°26'0 0.0
2018-Jul-15 09:00S 33°55' E 018°26'0 0.0
2018-Jul-15 08:30S 33°55' E 018°26'0 0.0
2018-Jul-15 07:57S 33°55' E 018°26'0 0.0
2018-Jul-15 07:30S 33°55' E 018°26'0 0.0
2018-Jul-15 07:00S 33°55' E 018°26'0 0.0
2018-Jul-15 06:30S 33°55' E 018°26'0 0.0
2018-Jul-15 06:00S 33°55' E 018°26'0 0.0
2018-Jul-15 05:30S 33°55' E 018°26'0 0.0
2018-Jul-15 04:57S 33°55' E 018°26'0 0.0
2018-Jul-15 04:30S 33°55' E 018°26'0 0.0
2018-Jul-15 04:00S 33°55' E 018°26'0 0.0
2018-Jul-15 03:30S 33°55' E 018°26'0 0.0
2018-Jul-15 03:00S 33°55' E 018°26'0 0.0
2018-Jul-15 02:30S 33°55' E 018°26'0 0.0
2018-Jul-15 02:00S 33°55' E 018°26'0 0.0
2018-Jul-15 01:30S 33°55' E 018°26'0 0.0
2018-Jul-15 01:00S 33°55' E 018°26'0 0.0
2018-Jul-15 00:30S 33°55' E 018°26'0 0.0
2018-Jul-15 00:00S 33°55' E 018°26'0 0.0
2018-Jul-14 23:30S 33°55' E 018°26'0 0.0
2018-Jul-14 23:00S 33°55' E 018°26'0 0.0
2018-Jul-14 22:30S 33°55' E 018°26'0 0.0
2018-Jul-14 22:00S 33°55' E 018°26'0 0.0
2018-Jul-14 21:30S 33°55' E 018°26'0 0.0
2018-Jul-14 21:00S 33°55' E 018°26'0 0.0
2018-Jul-14 20:30S 33°55' E 018°26'0 0.0
2018-Jul-14 20:00S 33°55' E 018°26'0 0.0
2018-Jul-14 19:30S 33°55' E 018°26'0 0.0
2018-Jul-14 19:00S 33°55' E 018°26'0 0.0
2018-Jul-14 18:30S 33°55' E 018°26'0 0.0
2018-Jul-14 18:00S 33°55' E 018°26'0 0.0
2018-Jul-14 17:30S 33°55' E 018°26'0 0.0
2018-Jul-14 16:57S 33°55' E 018°26'0 0.0
2018-Jul-14 16:30S 33°55' E 018°26'0 0.0
2018-Jul-14 16:00S 33°55' E 018°26'0 0.0
2018-Jul-14 15:30S 33°55' E 018°26'0 0.0
2018-Jul-14 15:00S 33°55' E 018°26'0 0.0
2018-Jul-14 14:30S 33°55' E 018°26'0 0.0
2018-Jul-14 13:30S 33°55' E 018°26'0 0.0
2018-Jul-14 13:00S 33°55' E 018°26'0 0.0
2018-Jul-14 12:30S 33°55' E 018°26'0 0.0
2018-Jul-14 12:00S 33°55' E 018°26'0 0.0
2018-Jul-14 11:30S 33°55' E 018°26'0 0.0
2018-Jul-14 11:00S 33°55' E 018°26'0 0.5
2018-Jul-14 10:31S 33°55' E 018°26'2 3.9
2018-Jul-14 10:01S 33°53' E 018°25'9 9.1
2018-Jul-14 08:59S 33°59' E 018°16'816.6
2018-Jul-14 08:30S 34°06' E 018°14'1019.0
2018-Jul-14 07:57S 34°16' E 018°11'818.1
2018-Jul-14 07:30S 34°24' E 018°14'918.7
2018-Jul-14 07:00S 34°29' E 018°24'918.7
2018-Jul-14 06:30S 34°34' E 018°33'1018.7
2018-Jul-14 05:58S 34°39' E 018°44'  
2018-Jul-11 18:19S 30°04' E 030°59'620.3
2018-Jul-11 18:01S 29°59' E 031°03'917.2
2018-Jul-11 17:30S 29°50' E 031°06'4 6.9
2018-Jul-11 17:00S 29°53' E 031°02'0 0.1
2018-Jul-11 15:42S 29°52' E 031°02'0 0.0
2018-Jul-11 15:30S 29°52' E 031°02'0 0.0
2018-Jul-11 14:54S 29°52' E 031°02'0 0.0
2018-Jul-11 14:24S 29°52' E 031°02'0 0.0
2018-Jul-11 14:00S 29°52' E 031°02'0 0.0
2018-Jul-11 13:30S 29°52' E 031°02'0 0.0
2018-Jul-11 12:18S 29°52' E 031°02'0 0.0
2018-Jul-11 12:00S 29°52' E 031°02'0 0.0
2018-Jul-11 11:30S 29°52' E 031°02'0 0.0
2018-Jul-11 10:54S 29°52' E 031°02'0 0.0
2018-Jul-11 10:18S 29°52' E 031°02'0 0.0
2018-Jul-11 10:00S 29°52' E 031°02'0 0.0
2018-Jul-11 09:30S 29°52' E 031°02'0 0.0
2018-Jul-11 08:54S 29°52' E 031°02'0 0.0
2018-Jul-11 07:30S 29°52' E 031°02'0 0.0
2018-Jul-11 07:00S 29°52' E 031°02'0 0.0
2018-Jul-11 06:24S 29°52' E 031°02'0 0.0
2018-Jul-11 06:00S 29°52' E 031°02'0 0.0
2018-Jul-11 05:24S 29°52' E 031°02'0 0.0
2018-Jul-11 05:00S 29°52' E 031°02'0 0.0
2018-Jul-11 04:24S 29°52' E 031°02'0 0.0
2018-Jul-11 04:00S 29°52' E 031°02'0 0.0
2018-Jul-11 03:30S 29°52' E 031°02'0 0.0
2018-Jul-11 03:00S 29°52' E 031°02'0 0.0
2018-Jul-11 02:30S 29°52' E 031°02'0 0.0
2018-Jul-11 02:00S 29°52' E 031°02'0 0.0
2018-Jul-11 01:30S 29°52' E 031°02'0 0.0
2018-Jul-11 01:00S 29°52' E 031°02'0 0.0
2018-Jul-11 00:30S 29°52' E 031°02'0 0.0
2018-Jul-11 00:00S 29°52' E 031°02'0 0.0
2018-Jul-10 23:30S 29°52' E 031°02'0 0.0
2018-Jul-10 23:00S 29°52' E 031°02'0 0.0
2018-Jul-10 22:30S 29°52' E 031°02'0 0.0
2018-Jul-10 22:00S 29°52' E 031°02'0 0.0
2018-Jul-10 21:30S 29°52' E 031°02'0 0.0
2018-Jul-10 21:00S 29°52' E 031°02'0 0.0
2018-Jul-10 20:30S 29°52' E 031°02'0 0.0
2018-Jul-10 20:00S 29°52' E 031°02'0 0.0
2018-Jul-10 19:18S 29°52' E 031°02'0 0.0
2018-Jul-10 17:54S 29°52' E 031°02'0 0.0
2018-Jul-10 17:18S 29°52' E 031°02'0 0.0
2018-Jul-10 17:00S 29°52' E 031°02'0 0.0
2018-Jul-10 16:30S 29°52' E 031°02'0 0.0
2018-Jul-10 15:54S 29°52' E 031°02'0 0.0
2018-Jul-10 15:24S 29°52' E 031°02'0 0.0
2018-Jul-10 14:48S 29°52' E 031°02'0 0.0
2018-Jul-10 14:30S 29°52' E 031°02'0 0.0
2018-Jul-10 14:00S 29°52' E 031°02'0 0.0
2018-Jul-10 13:30S 29°52' E 031°02'0 0.0
2018-Jul-10 12:54S 29°52' E 031°02'0 0.0
2018-Jul-10 12:30S 29°52' E 031°02'0 0.0
2018-Jul-10 12:00S 29°52' E 031°02'0 0.0
2018-Jul-10 11:18S 29°52' E 031°02'0 0.0
2018-Jul-10 11:00S 29°52' E 031°02'0 0.0
2018-Jul-10 10:30S 29°52' E 031°03'0 0.0
2018-Jul-10 10:00S 29°52' E 031°03'0 0.0
2018-Jul-10 09:30S 29°52' E 031°03'0 0.0
2018-Jul-10 09:00S 29°52' E 031°03'0 0.0
2018-Jul-10 07:30S 29°52' E 031°03'0 0.0
2018-Jul-10 07:00S 29°52' E 031°03'0 0.0
2018-Jul-10 06:30S 29°52' E 031°03'0 0.0
2018-Jul-10 06:00S 29°52' E 031°03'0 0.0
2018-Jul-10 05:30S 29°52' E 031°03'0 0.0
2018-Jul-10 05:00S 29°52' E 031°03'0 0.0
2018-Jul-10 04:30S 29°52' E 031°03'0 0.0
2018-Jul-10 04:00S 29°52' E 031°03'0 0.0
2018-Jul-10 03:30S 29°52' E 031°03'0 0.0
2018-Jul-10 03:00S 29°52' E 031°03'0 0.0
2018-Jul-10 02:30S 29°52' E 031°03'0 0.0
2018-Jul-10 02:00S 29°52' E 031°03'0 0.0
2018-Jul-10 01:30S 29°52' E 031°03'0 0.0
2018-Jul-10 01:00S 29°52' E 031°03'0 0.0
2018-Jul-10 00:30S 29°52' E 031°03'0 0.0
2018-Jul-10 00:00S 29°52' E 031°03'0 0.0
2018-Jul-09 23:30S 29°52' E 031°03'0 0.0
2018-Jul-09 23:00S 29°52' E 031°03'0 0.0
2018-Jul-09 22:30S 29°52' E 031°03'0 0.0
2018-Jul-09 21:54S 29°52' E 031°03'0 0.0
2018-Jul-09 21:30S 29°52' E 031°03'0 0.0
2018-Jul-09 21:00S 29°52' E 031°03'0 0.0
2018-Jul-09 20:18S 29°52' E 031°03'0 0.0
2018-Jul-09 20:00S 29°52' E 031°03'0 0.0
2018-Jul-09 19:24S 29°52' E 031°03'0 0.0
2018-Jul-09 19:00S 29°52' E 031°03'0 0.0
2018-Jul-09 18:30S 29°52' E 031°03'0 0.0
2018-Jul-09 18:00S 29°52' E 031°03'0 0.0
2018-Jul-09 17:30S 29°52' E 031°03'0 0.0
2018-Jul-09 17:00S 29°52' E 031°03'0 0.0
2018-Jul-09 16:30S 29°52' E 031°03'0 0.0
2018-Jul-09 16:00S 29°52' E 031°03'0 0.0
2018-Jul-09 15:30S 29°52' E 031°03'0 0.0
2018-Jul-09 15:00S 29°52' E 031°03'0 0.0
2018-Jul-09 14:24S 29°52' E 031°03'0 0.0
2018-Jul-09 14:00S 29°52' E 031°03'0 0.0
2018-Jul-09 13:30S 29°52' E 031°03'0 0.0
2018-Jul-09 13:00S 29°52' E 031°03'0 0.0
2018-Jul-09 12:30S 29°52' E 031°03'0 0.0
2018-Jul-09 12:00S 29°52' E 031°03'0 0.0
2018-Jul-09 11:30S 29°52' E 031°03'0 0.0
2018-Jul-09 11:00S 29°52' E 031°03'0 0.0
2018-Jul-09 10:30S 29°52' E 031°03'0 0.0
2018-Jul-09 10:00S 29°52' E 031°03'0 0.0
2018-Jul-09 09:30S 29°52' E 031°03'0 0.0
2018-Jul-09 09:00S 29°52' E 031°03'0 0.0
2018-Jul-09 07:24S 29°52' E 031°03'0 0.0
2018-Jul-09 07:00S 29°52' E 031°03'0 0.0
2018-Jul-09 06:30S 29°52' E 031°03'0 0.0
2018-Jul-09 06:00S 29°52' E 031°03'0 0.0
2018-Jul-09 05:30S 29°52' E 031°03'0 0.0
2018-Jul-09 05:00S 29°52' E 031°03'0 0.0
2018-Jul-09 04:30S 29°52' E 031°03'0 0.0
2018-Jul-09 03:54S 29°52' E 031°03'0 0.0
2018-Jul-09 03:30S 29°52' E 031°03'0 0.0
2018-Jul-09 03:00S 29°52' E 031°03'0 0.0
2018-Jul-09 02:30S 29°52' E 031°03'0 0.0
2018-Jul-09 01:54S 29°52' E 031°03'0 0.0
2018-Jul-09 01:30S 29°52' E 031°03'0 0.0
2018-Jul-09 01:00S 29°52' E 031°03'0 0.0
2018-Jul-09 00:30S 29°52' E 031°03'0 0.0
2018-Jul-09 00:00S 29°52' E 031°03'0 0.0
2018-Jul-08 23:30S 29°52' E 031°03'0 0.0
2018-Jul-08 23:00S 29°52' E 031°03'0 0.0
2018-Jul-08 22:18S 29°52' E 031°03'0 0.0
2018-Jul-08 21:54S 29°52' E 031°03'0 0.0
2018-Jul-08 21:30S 29°52' E 031°03'0 0.0
2018-Jul-08 21:00S 29°52' E 031°03'0 0.0
2018-Jul-08 20:24S 29°52' E 031°03'0 0.0
2018-Jul-08 20:00S 29°52' E 031°03'0 0.0
2018-Jul-08 19:30S 29°52' E 031°03'0 0.0
2018-Jul-08 19:00S 29°52' E 031°03'0 0.0
2018-Jul-08 18:30S 29°52' E 031°03'0 0.0
2018-Jul-08 18:00S 29°52' E 031°03'0 0.0
2018-Jul-08 17:24S 29°52' E 031°03'0 0.0
2018-Jul-08 15:36S 29°52' E 031°03'0 0.0
2018-Jul-08 15:24S 29°52' E 031°03'0 0.0
2018-Jul-08 15:00S 29°52' E 031°03'0 0.0
2018-Jul-08 14:30S 29°52' E 031°03'0 0.0
2018-Jul-08 14:00S 29°52' E 031°03'0 0.0
2018-Jul-08 13:30S 29°52' E 031°03'0 0.0
2018-Jul-08 13:00S 29°52' E 031°03'0 0.0
2018-Jul-08 12:30S 29°52' E 031°03'0 0.0
2018-Jul-08 12:00S 29°52' E 031°03'0 0.0
2018-Jul-08 11:30S 29°52' E 031°03'0 0.0
2018-Jul-08 11:00S 29°52' E 031°03'0 0.0
2018-Jul-08 10:24S 29°52' E 031°03'0 0.0
2018-Jul-08 10:00S 29°52' E 031°03'0 0.0
2018-Jul-08 09:30S 29°52' E 031°03'0 0.0
2018-Jul-08 09:00S 29°52' E 031°03'0 0.0
2018-Jul-08 07:30S 29°52' E 031°03'0 0.0
2018-Jul-08 07:00S 29°52' E 031°03'0 0.0
2018-Jul-08 06:30S 29°52' E 031°03'0 0.0
2018-Jul-08 06:00S 29°52' E 031°03'0 0.0
2018-Jul-08 05:30S 29°52' E 031°03'0 0.0
2018-Jul-08 05:00S 29°52' E 031°03'0 0.0
2018-Jul-08 04:30S 29°52' E 031°03'0 0.0
2018-Jul-08 04:00S 29°52' E 031°03'0 0.0
2018-Jul-08 03:30S 29°52' E 031°03'0 0.0
2018-Jul-08 03:00S 29°52' E 031°03'0 0.0
2018-Jul-08 02:30S 29°52' E 031°03'0 0.0
2018-Jul-08 02:00S 29°52' E 031°03'0 0.0
2018-Jul-08 01:30S 29°52' E 031°03'0 0.0
2018-Jul-08 00:54S 29°52' E 031°03'0 0.0
2018-Jul-08 00:30S 29°52' E 031°03'0 0.0
2018-Jul-08 00:00S 29°52' E 031°03'0 0.0
2018-Jul-07 23:30S 29°52' E 031°03'0 0.0
2018-Jul-07 23:00S 29°52' E 031°03'0 0.0
2018-Jul-07 22:30S 29°52' E 031°03'0 0.0
2018-Jul-07 22:00S 29°52' E 031°03'0 0.0
2018-Jul-07 21:30S 29°52' E 031°03'0 0.0
2018-Jul-07 20:54S 29°52' E 031°03'0 0.0
2018-Jul-07 20:30S 29°52' E 031°03'0 0.0
2018-Jul-07 20:00S 29°52' E 031°03'0 0.0
2018-Jul-07 19:30S 29°52' E 031°03'0 0.0
2018-Jul-07 18:54S 29°52' E 031°03'0 0.0
2018-Jul-07 18:30S 29°52' E 031°03'0 0.0
2018-Jul-07 18:00S 29°52' E 031°03'0 0.0
2018-Jul-07 17:28S 29°52' E 031°03'1 1.7
2018-Jul-07 17:00S 29°53' E 031°02'0 0.0
2018-Jul-07 08:56S 29°53' E 031°01'0 0.0
2018-Jul-07 01:44S 29°53' E 031°01'0 0.0
2018-Jul-07 01:25S 29°53' E 031°01'0 0.7
2018-Jul-07 01:00S 29°53' E 031°02'3 5.0
2018-Jul-07 00:30S 29°51' E 031°04'3 6.3
2018-Jul-07 00:00S 29°49' E 031°06'0 0.2
2018-Jul-06 23:30S 29°49' E 031°05'1 2.2
2018-Jul-06 23:00S 29°48' E 031°07'5 8.6
2018-Jul-06 22:25S 29°44' E 031°09'0 0.1
2018-Jul-06 21:55S 29°44' E 031°09'0 0.0
2018-Jul-06 21:25S 29°44' E 031°09'0 0.0
2018-Jul-06 20:55S 29°44' E 031°09'0 0.1
2018-Jul-06 20:25S 29°44' E 031°09'0 0.1
2018-Jul-06 19:55S 29°43' E 031°09'0 0.0
2018-Jul-06 19:25S 29°43' E 031°09'0 0.0
2018-Jul-06 18:55S 29°43' E 031°09'0 0.1
2018-Jul-06 18:25S 29°43' E 031°09'0 0.2
2018-Jul-06 17:55S 29°43' E 031°09'0 0.2
2018-Jul-06 17:25S 29°43' E 031°09'0 0.1
2018-Jul-06 16:55S 29°43' E 031°09'0 0.1
2018-Jul-06 16:25S 29°43' E 031°09'0 0.0
2018-Jul-06 15:55S 29°43' E 031°09'0 0.1
2018-Jul-06 15:25S 29°43' E 031°09'0 0.1
2018-Jul-06 14:55S 29°43' E 031°09'0 0.1
2018-Jul-06 14:25S 29°43' E 031°09'0 0.0
2018-Jul-06 13:55S 29°43' E 031°09'0 0.0
2018-Jul-06 13:25S 29°43' E 031°09'0 0.1
2018-Jul-06 12:55S 29°43' E 031°09'0 0.1
2018-Jul-06 12:25S 29°43' E 031°09'0 0.0
2018-Jul-06 11:55S 29°43' E 031°09'0 0.0
2018-Jul-06 11:25S 29°43' E 031°09'0 0.0
2018-Jul-06 10:55S 29°43' E 031°09'0 0.0
2018-Jul-06 10:25S 29°43' E 031°09'0 0.0
2018-Jul-06 09:55S 29°43' E 031°09'0 0.0
2018-Jul-06 09:25S 29°43' E 031°09'0 0.1
2018-Jul-06 08:55S 29°43' E 031°09'0 0.1
2018-Jul-06 07:31S 29°43' E 031°09'0 0.1
2018-Jul-06 07:25S 29°43' E 031°09'0 0.0
2018-Jul-06 06:55S 29°43' E 031°09'0 0.0
2018-Jul-06 06:25S 29°43' E 031°09'0 0.0
2018-Jul-06 05:55S 29°43' E 031°09'1 2.7
2018-Jul-06 05:30S 29°43' E 031°10'3 6.5
2018-Jul-06 05:00S 29°46' E 031°12'612.2
2018-Jul-06 04:30S 29°52' E 031°13'612.8
2018-Jul-06 04:00S 29°59' E 031°11'815.6
2018-Jul-06 03:30S 30°06' E 031°08'  
Track history (hours):
 
Tides and Currents Weather Stations Pressure Air Temp Water Temp Dewpoint Dewpoint Depression Visibility Wind Speed Wind Dir Waves Ship Positions

CSAV Rahue

Last reported at 2018-Jul-15 15:23 UTC. Time now 2018-Jul-18 22:26 UTC.
Position S 33°21' E 017°56'.

Length 231 m; draft 10.4 m.

Type: Ship (hazmat cat B). MMSI: 636091346.

Date/timePositionNaut miles runAvg speedWind from/ knotsBaromVisibWave heightAir tempDewpointWater temp
2018-Jul-15 15:23S 33°21' E 017°56'818.0
2018-Jul-15 14:55S 33°28' E 018°01'917.5
2018-Jul-15 14:22S 33°36' E 018°07'1117.7
2018-Jul-15 13:45S 33°45' E 018°15'517.8
2018-Jul-15 13:30S 33°49' E 018°18'714.2
2018-Jul-15 13:01S 33°52' E 018°26'3 5.7
2018-Jul-15 12:31S 33°55' E 018°26'0 0.1
2018-Jul-15 12:00S 33°55' E 018°26'0 0.0
2018-Jul-15 11:30S 33°55' E 018°26'0 0.0
2018-Jul-15 11:00S 33°55' E 018°26'0 0.0
2018-Jul-15 10:30S 33°55' E 018°26'0 0.0
2018-Jul-15 10:00S 33°55' E 018°26'0 0.0
2018-Jul-15 09:30S 33°55' E 018°26'0 0.0
2018-Jul-15 09:00S 33°55' E 018°26'0 0.0
2018-Jul-15 08:30S 33°55' E 018°26'0 0.0
2018-Jul-15 07:57S 33°55' E 018°26'0 0.0
2018-Jul-15 07:30S 33°55' E 018°26'0 0.0
2018-Jul-15 07:00S 33°55' E 018°26'0 0.0
2018-Jul-15 06:30S 33°55' E 018°26'0 0.0
2018-Jul-15 06:00S 33°55' E 018°26'0 0.0
2018-Jul-15 05:30S 33°55' E 018°26'0 0.0
2018-Jul-15 04:57S 33°55' E 018°26'0 0.0
2018-Jul-15 04:30S 33°55' E 018°26'0 0.0
2018-Jul-15 04:00S 33°55' E 018°26'0 0.0
2018-Jul-15 03:30S 33°55' E 018°26'0 0.0
2018-Jul-15 03:00S 33°55' E 018°26'0 0.0
2018-Jul-15 02:30S 33°55' E 018°26'0 0.0
2018-Jul-15 02:00S 33°55' E 018°26'0 0.0
2018-Jul-15 01:30S 33°55' E 018°26'0 0.0
2018-Jul-15 01:00S 33°55' E 018°26'0 0.0
2018-Jul-15 00:30S 33°55' E 018°26'0 0.0
2018-Jul-15 00:00S 33°55' E 018°26'0 0.0
2018-Jul-14 23:30S 33°55' E 018°26'0 0.0
2018-Jul-14 23:00S 33°55' E 018°26'0 0.0
2018-Jul-14 22:30S 33°55' E 018°26'0 0.0
2018-Jul-14 22:00S 33°55' E 018°26'0 0.0
2018-Jul-14 21:30S 33°55' E 018°26'0 0.0
2018-Jul-14 21:00S 33°55' E 018°26'0 0.0
2018-Jul-14 20:30S 33°55' E 018°26'0 0.0
2018-Jul-14 20:00S 33°55' E 018°26'0 0.0
2018-Jul-14 19:30S 33°55' E 018°26'0 0.0
2018-Jul-14 19:00S 33°55' E 018°26'0 0.0
2018-Jul-14 18:30S 33°55' E 018°26'0 0.0
2018-Jul-14 18:00S 33°55' E 018°26'0 0.0
2018-Jul-14 17:30S 33°55' E 018°26'0 0.0
2018-Jul-14 16:57S 33°55' E 018°26'0 0.0
2018-Jul-14 16:30S 33°55' E 018°26'0 0.0
2018-Jul-14 16:00S 33°55' E 018°26'0 0.0
2018-Jul-14 15:30S 33°55' E 018°26'0 0.0
2018-Jul-14 15:00S 33°55' E 018°26'0 0.0
2018-Jul-14 14:30S 33°55' E 018°26'0 0.0
2018-Jul-14 13:30S 33°55' E 018°26'0 0.0
2018-Jul-14 13:00S 33°55' E 018°26'0 0.0
2018-Jul-14 12:30S 33°55' E 018°26'0 0.0
2018-Jul-14 12:00S 33°55' E 018°26'0 0.0
2018-Jul-14 11:30S 33°55' E 018°26'0 0.0
2018-Jul-14 11:00S 33°55' E 018°26'0 0.5
2018-Jul-14 10:31S 33°55' E 018°26'2 3.9
2018-Jul-14 10:01S 33°53' E 018°25'9 9.1
2018-Jul-14 08:59S 33°59' E 018°16'816.6
2018-Jul-14 08:30S 34°06' E 018°14'1019.0
2018-Jul-14 07:57S 34°16' E 018°11'818.1
2018-Jul-14 07:30S 34°24' E 018°14'918.7
2018-Jul-14 07:00S 34°29' E 018°24'918.7
2018-Jul-14 06:30S 34°34' E 018°33'1018.7
2018-Jul-14 05:58S 34°39' E 018°44'  
2018-Jul-11 18:19S 30°04' E 030°59'620.3
2018-Jul-11 18:01S 29°59' E 031°03'917.2
2018-Jul-11 17:30S 29°50' E 031°06'4 6.9
2018-Jul-11 17:00S 29°53' E 031°02'0 0.1
2018-Jul-11 15:42S 29°52' E 031°02'0 0.0
2018-Jul-11 15:30S 29°52' E 031°02'0 0.0
2018-Jul-11 14:54S 29°52' E 031°02'0 0.0
2018-Jul-11 14:24S 29°52' E 031°02'0 0.0
2018-Jul-11 14:00S 29°52' E 031°02'0 0.0
2018-Jul-11 13:30S 29°52' E 031°02'0 0.0
2018-Jul-11 12:18S 29°52' E 031°02'0 0.0
2018-Jul-11 12:00S 29°52' E 031°02'0 0.0
2018-Jul-11 11:30S 29°52' E 031°02'0 0.0
2018-Jul-11 10:54S 29°52' E 031°02'0 0.0
2018-Jul-11 10:18S 29°52' E 031°02'0 0.0
2018-Jul-11 10:00S 29°52' E 031°02'0 0.0
2018-Jul-11 09:30S 29°52' E 031°02'0 0.0
2018-Jul-11 08:54S 29°52' E 031°02'0 0.0
2018-Jul-11 07:30S 29°52' E 031°02'0 0.0
2018-Jul-11 07:00S 29°52' E 031°02'0 0.0
2018-Jul-11 06:24S 29°52' E 031°02'0 0.0
2018-Jul-11 06:00S 29°52' E 031°02'0 0.0
2018-Jul-11 05:24S 29°52' E 031°02'0 0.0
2018-Jul-11 05:00S 29°52' E 031°02'0 0.0
2018-Jul-11 04:24S 29°52' E 031°02'0 0.0
2018-Jul-11 04:00S 29°52' E 031°02'0 0.0
2018-Jul-11 03:30S 29°52' E 031°02'0 0.0
2018-Jul-11 03:00S 29°52' E 031°02'0 0.0
2018-Jul-11 02:30S 29°52' E 031°02'0 0.0
2018-Jul-11 02:00S 29°52' E 031°02'0 0.0
2018-Jul-11 01:30S 29°52' E 031°02'0 0.0
2018-Jul-11 01:00S 29°52' E 031°02'0 0.0
2018-Jul-11 00:30S 29°52' E 031°02'0 0.0
2018-Jul-11 00:00S 29°52' E 031°02'0 0.0
2018-Jul-10 23:30S 29°52' E 031°02'0 0.0
2018-Jul-10 23:00S 29°52' E 031°02'0 0.0
2018-Jul-10 22:30S 29°52' E 031°02'0 0.0
2018-Jul-10 22:00S 29°52' E 031°02'0 0.0
2018-Jul-10 21:30S 29°52' E 031°02'0 0.0
2018-Jul-10 21:00S 29°52' E 031°02'0 0.0
2018-Jul-10 20:30S 29°52' E 031°02'0 0.0
2018-Jul-10 20:00S 29°52' E 031°02'0 0.0
2018-Jul-10 19:18S 29°52' E 031°02'0 0.0
2018-Jul-10 17:54S 29°52' E 031°02'0 0.0
2018-Jul-10 17:18S 29°52' E 031°02'0 0.0
2018-Jul-10 17:00S 29°52' E 031°02'0 0.0
2018-Jul-10 16:30S 29°52' E 031°02'0 0.0
2018-Jul-10 15:54S 29°52' E 031°02'0 0.0
2018-Jul-10 15:24S 29°52' E 031°02'0 0.0
2018-Jul-10 14:48S 29°52' E 031°02'0 0.0
2018-Jul-10 14:30S 29°52' E 031°02'0 0.0
2018-Jul-10 14:00S 29°52' E 031°02'0 0.0
2018-Jul-10 13:30S 29°52' E 031°02'0 0.0
2018-Jul-10 12:54S 29°52' E 031°02'0 0.0
2018-Jul-10 12:30S 29°52' E 031°02'0 0.0
2018-Jul-10 12:00S 29°52' E 031°02'0 0.0
2018-Jul-10 11:18S 29°52' E 031°02'0 0.0
2018-Jul-10 11:00S 29°52' E 031°02'0 0.0
2018-Jul-10 10:30S 29°52' E 031°03'0 0.0
2018-Jul-10 10:00S 29°52' E 031°03'0 0.0
2018-Jul-10 09:30S 29°52' E 031°03'0 0.0
2018-Jul-10 09:00S 29°52' E 031°03'0 0.0
2018-Jul-10 07:30S 29°52' E 031°03'0 0.0
2018-Jul-10 07:00S 29°52' E 031°03'0 0.0
2018-Jul-10 06:30S 29°52' E 031°03'0 0.0
2018-Jul-10 06:00S 29°52' E 031°03'0 0.0
2018-Jul-10 05:30S 29°52' E 031°03'0 0.0
2018-Jul-10 05:00S 29°52' E 031°03'0 0.0
2018-Jul-10 04:30S 29°52' E 031°03'0 0.0
2018-Jul-10 04:00S 29°52' E 031°03'0 0.0
2018-Jul-10 03:30S 29°52' E 031°03'0 0.0
2018-Jul-10 03:00S 29°52' E 031°03'0 0.0
2018-Jul-10 02:30S 29°52' E 031°03'0 0.0
2018-Jul-10 02:00S 29°52' E 031°03'0 0.0
2018-Jul-10 01:30S 29°52' E 031°03'0 0.0
2018-Jul-10 01:00S 29°52' E 031°03'0 0.0
2018-Jul-10 00:30S 29°52' E 031°03'0 0.0
2018-Jul-10 00:00S 29°52' E 031°03'0 0.0
2018-Jul-09 23:30S 29°52' E 031°03'0 0.0
2018-Jul-09 23:00S 29°52' E 031°03'0 0.0
2018-Jul-09 22:30S 29°52' E 031°03'0 0.0
2018-Jul-09 21:54S 29°52' E 031°03'0 0.0
2018-Jul-09 21:30S 29°52' E 031°03'0 0.0
2018-Jul-09 21:00S 29°52' E 031°03'0 0.0
2018-Jul-09 20:18S 29°52' E 031°03'0 0.0
2018-Jul-09 20:00S 29°52' E 031°03'0 0.0
2018-Jul-09 19:24S 29°52' E 031°03'0 0.0
2018-Jul-09 19:00S 29°52' E 031°03'0 0.0
2018-Jul-09 18:30S 29°52' E 031°03'0 0.0
2018-Jul-09 18:00S 29°52' E 031°03'0 0.0
2018-Jul-09 17:30S 29°52' E 031°03'0 0.0
2018-Jul-09 17:00S 29°52' E 031°03'0 0.0
2018-Jul-09 16:30S 29°52' E 031°03'0 0.0
2018-Jul-09 16:00S 29°52' E 031°03'0 0.0
2018-Jul-09 15:30S 29°52' E 031°03'0 0.0
2018-Jul-09 15:00S 29°52' E 031°03'0 0.0
2018-Jul-09 14:24S 29°52' E 031°03'0 0.0
2018-Jul-09 14:00S 29°52' E 031°03'0 0.0
2018-Jul-09 13:30S 29°52' E 031°03'0 0.0
2018-Jul-09 13:00S 29°52' E 031°03'0 0.0
2018-Jul-09 12:30S 29°52' E 031°03'0 0.0
2018-Jul-09 12:00S 29°52' E 031°03'0 0.0
2018-Jul-09 11:30S 29°52' E 031°03'0 0.0
2018-Jul-09 11:00S 29°52' E 031°03'0 0.0
2018-Jul-09 10:30S 29°52' E 031°03'0 0.0
2018-Jul-09 10:00S 29°52' E 031°03'0 0.0
2018-Jul-09 09:30S 29°52' E 031°03'0 0.0
2018-Jul-09 09:00S 29°52' E 031°03'0 0.0
2018-Jul-09 07:24S 29°52' E 031°03'0 0.0
2018-Jul-09 07:00S 29°52' E 031°03'0 0.0
2018-Jul-09 06:30S 29°52' E 031°03'0 0.0
2018-Jul-09 06:00S 29°52' E 031°03'0 0.0
2018-Jul-09 05:30S 29°52' E 031°03'0 0.0
2018-Jul-09 05:00S 29°52' E 031°03'0 0.0
2018-Jul-09 04:30S 29°52' E 031°03'0 0.0
2018-Jul-09 03:54S 29°52' E 031°03'0 0.0
2018-Jul-09 03:30S 29°52' E 031°03'0 0.0
2018-Jul-09 03:00S 29°52' E 031°03'0 0.0
2018-Jul-09 02:30S 29°52' E 031°03'0 0.0
2018-Jul-09 01:54S 29°52' E 031°03'0 0.0
2018-Jul-09 01:30S 29°52' E 031°03'0 0.0
2018-Jul-09 01:00S 29°52' E 031°03'0 0.0
2018-Jul-09 00:30S 29°52' E 031°03'0 0.0
2018-Jul-09 00:00S 29°52' E 031°03'0 0.0
2018-Jul-08 23:30S 29°52' E 031°03'0 0.0
2018-Jul-08 23:00S 29°52' E 031°03'0 0.0
2018-Jul-08 22:18S 29°52' E 031°03'0 0.0
2018-Jul-08 21:54S 29°52' E 031°03'0 0.0
2018-Jul-08 21:30S 29°52' E 031°03'0 0.0
2018-Jul-08 21:00S 29°52' E 031°03'0 0.0
2018-Jul-08 20:24S 29°52' E 031°03'0 0.0
2018-Jul-08 20:00S 29°52' E 031°03'0 0.0
2018-Jul-08 19:30S 29°52' E 031°03'0 0.0
2018-Jul-08 19:00S 29°52' E 031°03'0 0.0
2018-Jul-08 18:30S 29°52' E 031°03'0 0.0
2018-Jul-08 18:00S 29°52' E 031°03'0 0.0
2018-Jul-08 17:24S 29°52' E 031°03'0 0.0
2018-Jul-08 15:36S 29°52' E 031°03'0 0.0
2018-Jul-08 15:24S 29°52' E 031°03'0 0.0
2018-Jul-08 15:00S 29°52' E 031°03'0 0.0
2018-Jul-08 14:30S 29°52' E 031°03'0 0.0
2018-Jul-08 14:00S 29°52' E 031°03'0 0.0
2018-Jul-08 13:30S 29°52' E 031°03'0 0.0
2018-Jul-08 13:00S 29°52' E 031°03'0 0.0
2018-Jul-08 12:30S 29°52' E 031°03'0 0.0
2018-Jul-08 12:00S 29°52' E 031°03'0 0.0
2018-Jul-08 11:30S 29°52' E 031°03'0 0.0
2018-Jul-08 11:00S 29°52' E 031°03'0 0.0
2018-Jul-08 10:24S 29°52' E 031°03'0 0.0
2018-Jul-08 10:00S 29°52' E 031°03'0 0.0
2018-Jul-08 09:30S 29°52' E 031°03'0 0.0
2018-Jul-08 09:00S 29°52' E 031°03'0 0.0
2018-Jul-08 07:30S 29°52' E 031°03'0 0.0
2018-Jul-08 07:00S 29°52' E 031°03'0 0.0
2018-Jul-08 06:30S 29°52' E 031°03'0 0.0
2018-Jul-08 06:00S 29°52' E 031°03'0 0.0
2018-Jul-08 05:30S 29°52' E 031°03'0 0.0
2018-Jul-08 05:00S 29°52' E 031°03'0 0.0
2018-Jul-08 04:30S 29°52' E 031°03'0 0.0
2018-Jul-08 04:00S 29°52' E 031°03'0 0.0
2018-Jul-08 03:30S 29°52' E 031°03'0 0.0
2018-Jul-08 03:00S 29°52' E 031°03'0 0.0
2018-Jul-08 02:30S 29°52' E 031°03'0 0.0
2018-Jul-08 02:00S 29°52' E 031°03'0 0.0
2018-Jul-08 01:30S 29°52' E 031°03'0 0.0
2018-Jul-08 00:54S 29°52' E 031°03'0 0.0
2018-Jul-08 00:30S 29°52' E 031°03'0 0.0
2018-Jul-08 00:00S 29°52' E 031°03'0 0.0
2018-Jul-07 23:30S 29°52' E 031°03'0 0.0
2018-Jul-07 23:00S 29°52' E 031°03'0 0.0
2018-Jul-07 22:30S 29°52' E 031°03'0 0.0
2018-Jul-07 22:00S 29°52' E 031°03'0 0.0
2018-Jul-07 21:30S 29°52' E 031°03'0 0.0
2018-Jul-07 20:54S 29°52' E 031°03'0 0.0
2018-Jul-07 20:30S 29°52' E 031°03'0 0.0
2018-Jul-07 20:00S 29°52' E 031°03'0 0.0
2018-Jul-07 19:30S 29°52' E 031°03'0 0.0
2018-Jul-07 18:54S 29°52' E 031°03'0 0.0
2018-Jul-07 18:30S 29°52' E 031°03'0 0.0
2018-Jul-07 18:00S 29°52' E 031°03'0 0.0
2018-Jul-07 17:28S 29°52' E 031°03'1 1.7
2018-Jul-07 17:00S 29°53' E 031°02'0 0.0
2018-Jul-07 08:56S 29°53' E 031°01'0 0.0
2018-Jul-07 01:44S 29°53' E 031°01'0 0.0
2018-Jul-07 01:25S 29°53' E 031°01'0 0.7
2018-Jul-07 01:00S 29°53' E 031°02'3 5.0
2018-Jul-07 00:30S 29°51' E 031°04'3 6.3
2018-Jul-07 00:00S 29°49' E 031°06'0 0.2
2018-Jul-06 23:30S 29°49' E 031°05'1 2.2
2018-Jul-06 23:00S 29°48' E 031°07'5 8.6
2018-Jul-06 22:25S 29°44' E 031°09'0 0.1
2018-Jul-06 21:55S 29°44' E 031°09'0 0.0
2018-Jul-06 21:25S 29°44' E 031°09'0 0.0
2018-Jul-06 20:55S 29°44' E 031°09'0 0.1
2018-Jul-06 20:25S 29°44' E 031°09'0 0.1
2018-Jul-06 19:55S 29°43' E 031°09'0 0.0
2018-Jul-06 19:25S 29°43' E 031°09'0 0.0
2018-Jul-06 18:55S 29°43' E 031°09'0 0.1
2018-Jul-06 18:25S 29°43' E 031°09'0 0.2
2018-Jul-06 17:55S 29°43' E 031°09'0 0.2
2018-Jul-06 17:25S 29°43' E 031°09'0 0.1
2018-Jul-06 16:55S 29°43' E 031°09'0 0.1
2018-Jul-06 16:25S 29°43' E 031°09'0 0.0
2018-Jul-06 15:55S 29°43' E 031°09'0 0.1
2018-Jul-06 15:25S 29°43' E 031°09'0 0.1
2018-Jul-06 14:55S 29°43' E 031°09'0 0.1
2018-Jul-06 14:25S 29°43' E 031°09'0 0.0
2018-Jul-06 13:55S 29°43' E 031°09'0 0.0
2018-Jul-06 13:25S 29°43' E 031°09'0 0.1
2018-Jul-06 12:55S 29°43' E 031°09'0 0.1
2018-Jul-06 12:25S 29°43' E 031°09'0 0.0
2018-Jul-06 11:55S 29°43' E 031°09'0 0.0
2018-Jul-06 11:25S 29°43' E 031°09'0 0.0
2018-Jul-06 10:55S 29°43' E 031°09'0 0.0
2018-Jul-06 10:25S 29°43' E 031°09'0 0.0
2018-Jul-06 09:55S 29°43' E 031°09'0 0.0
2018-Jul-06 09:25S 29°43' E 031°09'0 0.1
2018-Jul-06 08:55S 29°43' E 031°09'0 0.1
2018-Jul-06 07:31S 29°43' E 031°09'0 0.1
2018-Jul-06 07:25S 29°43' E 031°09'0 0.0
2018-Jul-06 06:55S 29°43' E 031°09'0 0.0
2018-Jul-06 06:25S 29°43' E 031°09'0 0.0
2018-Jul-06 05:55S 29°43' E 031°09'1 2.7
2018-Jul-06 05:30S 29°43' E 031°10'3 6.5
2018-Jul-06 05:00S 29°46' E 031°12'612.2
2018-Jul-06 04:30S 29°52' E 031°13'612.8
2018-Jul-06 04:00S 29°59' E 031°11'815.6
2018-Jul-06 03:30S 30°06' E 031°08'  

Dump ship's entire track history